Time;durP1;ratioP1;P1;durP2;ratioP2;P2;SDS_P1;SDS_P2;PMS_P1;PMS_P2;Temp;Humidity;BMP_temperature;BMP_pressure;BME280_temperature;BME280_humidity;BME280_pressure;Samples;Min_cycle;Max_cycle;Signal;HPM_P1;HPM_P2
2023/09/17 00:02:20;;;;;;;0.10;0.10;;;;;;;;;;6301171;28;20608;-86
2023/09/17 00:05:20;;;;;;;0.10;0.10;;;;;;;;;;6272529;28;20036;-87
2023/09/17 00:08:22;;;;;;;0.10;0.10;;;;;;;;;;6277806;28;20043;-87
2023/09/17 00:11:22;;;;;;;0.10;0.10;;;;;;;;;;6289805;28;20020;-86
2023/09/17 00:14:22;;;;;;;0.10;0.10;;;;;;;;;;6291189;28;20013;-87
2023/09/17 00:17:23;;;;;;;0.10;0.10;;;;;;;;;;6292816;28;20013;-82
2023/09/17 00:20:24;;;;;;;0.10;0.10;;;;;;;;;;6292105;28;20434;-82
2023/09/17 00:23:25;;;;;;;0.10;0.10;;;;;;;;;;6290032;28;20017;-81
2023/09/17 00:26:27;;;;;;;0.10;0.10;;;;;;;;;;6272532;28;20035;-81
2023/09/17 00:29:27;;;;;;;0.10;0.10;;;;;;;;;;6290823;28;20048;-82
2023/09/17 00:32:28;;;;;;;0.00;0.00;;;;;;;;;;6285258;28;20044;-81
2023/09/17 00:35:28;;;;;;;0.10;0.10;;;;;;;;;;6268375;28;20021;-81
2023/09/17 00:38:28;;;;;;;0.10;0.10;;;;;;;;;;6281224;28;20043;-81
2023/09/17 00:41:28;;;;;;;0.10;0.10;;;;;;;;;;6292323;28;20024;-82
2023/09/17 00:44:28;;;;;;;0.10;0.10;;;;;;;;;;6269018;28;20027;-82
2023/09/17 00:47:30;;;;;;;0.10;0.10;;;;;;;;;;6274850;28;20048;-82
2023/09/17 00:50:32;;;;;;;0.10;0.10;;;;;;;;;;6288863;28;20390;-82
2023/09/17 00:53:32;;;;;;;0.10;0.10;;;;;;;;;;6268491;28;20031;-81
2023/09/17 00:56:33;;;;;;;0.10;0.10;;;;;;;;;;6291793;28;20059;-81
2023/09/17 00:59:34;;;;;;;0.10;0.10;;;;;;;;;;6276511;28;20028;-82
2023/09/17 01:02:36;;;;;;;0.10;0.10;;;;;;;;;;6297098;28;20018;-81
2023/09/17 01:05:39;;;;;;;0.10;0.10;;;;;;;;;;6285162;28;20067;-81
2023/09/17 01:08:40;;;;;;;0.10;0.10;;;;;;;;;;6270141;28;20191;-82
2023/09/17 01:11:41;;;;;;;0.10;0.10;;;;;;;;;;6287526;28;20449;-82
2023/09/17 01:14:42;;;;;;;0.10;0.10;;;;;;;;;;6269971;28;20027;-82
2023/09/17 01:17:43;;;;;;;0.10;0.10;;;;;;;;;;6269379;28;20053;-81
2023/09/17 01:20:52;;;;;;;0.10;0.10;;;;;;;;;;6286582;28;20479;-82
2023/09/17 01:23:59;;;;;;;0.10;0.10;;;;;;;;;;6277369;28;20435;-81
2023/09/17 01:27:03;;;;;;;0.10;0.10;;;;;;;;;;6273426;28;20024;-81
2023/09/17 01:30:05;;;;;;;0.10;0.10;;;;;;;;;;6292196;28;20028;-81
2023/09/17 01:33:09;;;;;;;0.10;0.10;;;;;;;;;;6307364;28;20028;-81
2023/09/17 01:36:21;;;;;;;0.10;0.10;;;;;;;;;;6291289;28;20031;-81
2023/09/17 01:39:24;;;;;;;0.10;0.10;;;;;;;;;;6273461;28;20032;-81
2023/09/17 01:42:24;;;;;;;0.10;0.10;;;;;;;;;;6277167;28;20070;-82
2023/09/17 01:45:26;;;;;;;0.10;0.10;;;;;;;;;;6280840;28;20036;-81
2023/09/17 01:48:27;;;;;;;0.10;0.10;;;;;;;;;;6286888;28;20097;-82
2023/09/17 01:51:29;;;;;;;0.10;0.10;;;;;;;;;;6275117;28;20029;-81
2023/09/17 01:54:30;;;;;;;0.10;0.10;;;;;;;;;;6285554;28;20025;-81
2023/09/17 01:57:31;;;;;;;0.10;0.10;;;;;;;;;;6294837;28;20441;-82
2023/09/17 02:00:32;;;;;;;0.10;0.10;;;;;;;;;;6277344;28;20040;-82
2023/09/17 02:03:32;;;;;;;0.10;0.10;;;;;;;;;;6296482;28;20075;-82
2023/09/17 02:06:32;;;;;;;0.10;0.10;;;;;;;;;;6276751;28;20044;-87
2023/09/17 02:09:32;;;;;;;0.10;0.10;;;;;;;;;;6284714;28;20033;-86
2023/09/17 02:12:33;;;;;;;0.10;0.10;;;;;;;;;;6309571;28;20013;-87
2023/09/17 02:15:33;;;;;;;0.10;0.10;;;;;;;;;;6294362;28;20502;-86
2023/09/17 02:18:33;;;;;;;0.10;0.10;;;;;;;;;;6272236;28;20024;-87
2023/09/17 02:21:33;;;;;;;0.10;0.10;;;;;;;;;;6296357;28;20115;-87
2023/09/17 02:24:33;;;;;;;0.10;0.10;;;;;;;;;;6304493;28;20071;-87
2023/09/17 02:27:34;;;;;;;0.10;0.10;;;;;;;;;;6293050;28;20071;-87
2023/09/17 02:30:34;;;;;;;0.10;0.10;;;;;;;;;;6292618;28;20379;-87
2023/09/17 02:33:34;;;;;;;0.10;0.10;;;;;;;;;;6293460;28;20017;-87
2023/09/17 02:36:36;;;;;;;0.10;0.10;;;;;;;;;;6282142;28;20072;-87
2023/09/17 02:39:36;;;;;;;;;;;;;;;;;;6294665;28;20021;-86
2023/09/17 02:42:39;;;;;;;0.10;0.10;;;;;;;;;;6294923;28;19908;-86
2023/09/17 02:45:39;;;;;;;0.10;0.10;;;;;;;;;;6296408;28;20486;-86
2023/09/17 02:48:40;;;;;;;0.10;0.10;;;;;;;;;;6277105;28;20035;-86
2023/09/17 02:51:40;;;;;;;0.10;0.10;;;;;;;;;;6275639;28;20028;-86
2023/09/17 02:54:40;;;;;;;0.10;0.10;;;;;;;;;;6275802;28;20386;-86
2023/09/17 02:57:40;;;;;;;0.10;0.10;;;;;;;;;;6297534;28;20055;-86
2023/09/17 03:00:44;;;;;;;0.10;0.10;;;;;;;;;;6296767;28;20024;-86
2023/09/17 03:03:45;;;;;;;0.10;0.10;;;;;;;;;;6297308;28;20085;-86
2023/09/17 03:06:46;;;;;;;0.10;0.10;;;;;;;;;;6273733;28;20098;-86
2023/09/17 03:09:46;;;;;;;0.10;0.10;;;;;;;;;;6288974;28;20024;-85
2023/09/17 03:12:47;;;;;;;0.10;0.10;;;;;;;;;;6291885;28;20067;-86
2023/09/17 03:15:47;;;;;;;0.10;0.10;;;;;;;;;;6276326;28;20027;-86
2023/09/17 03:18:47;;;;;;;0.10;0.10;;;;;;;;;;6295148;28;20107;-86
2023/09/17 03:21:47;;;;;;;0.10;0.10;;;;;;;;;;6278138;28;20445;-86
2023/09/17 03:24:48;;;;;;;0.10;0.10;;;;;;;;;;6298318;28;20082;-86
2023/09/17 03:27:48;;;;;;;0.10;0.10;;;;;;;;;;6270386;28;20471;-86
2023/09/17 03:30:48;;;;;;;0.10;0.10;;;;;;;;;;6289238;28;20440;-87
2023/09/17 03:33:49;;;;;;;0.10;0.10;;;;;;;;;;6298308;28;20027;-86
2023/09/17 03:36:50;;;;;;;0.10;0.10;;;;;;;;;;6303456;28;20032;-86
2023/09/17 03:40:12;;;;;;;0.10;0.10;;;;;;;;;;6293561;28;20394;-85
2023/09/17 03:43:13;;;;;;;;;;;;;;;;;;6274654;28;20474;-86
2023/09/17 03:46:13;;;;;;;0.10;0.10;;;;;;;;;;6281779;28;20378;-86
2023/09/17 03:49:13;;;;;;;0.10;0.10;;;;;;;;;;6307115;28;20028;-86
2023/09/17 03:52:13;;;;;;;0.10;0.10;;;;;;;;;;6284259;28;20055;-86
2023/09/17 03:55:14;;;;;;;0.10;0.10;;;;;;;;;;6275082;28;20052;-86
2023/09/17 03:58:14;;;;;;;0.10;0.10;;;;;;;;;;6292519;28;20027;-86
2023/09/17 04:01:14;;;;;;;0.10;0.10;;;;;;;;;;6292184;28;20024;-86
2023/09/17 04:04:14;;;;;;;0.10;0.10;;;;;;;;;;6287899;28;20081;-86
2023/09/17 04:07:15;;;;;;;0.10;0.10;;;;;;;;;;6288691;28;20076;-86
2023/09/17 04:10:16;;;;;;;0.10;0.10;;;;;;;;;;6288929;28;20056;-85
2023/09/17 04:13:16;;;;;;;0.10;0.10;;;;;;;;;;6274508;28;20401;-86
2023/09/17 04:16:20;;;;;;;0.10;0.10;;;;;;;;;;6289155;28;20111;-86
2023/09/17 04:19:21;;;;;;;0.10;0.10;;;;;;;;;;6295750;28;20087;-86
2023/09/17 04:22:21;;;;;;;0.10;0.10;;;;;;;;;;6270631;28;20044;-86
2023/09/17 04:25:21;;;;;;;0.10;0.10;;;;;;;;;;6268378;28;20031;-86
2023/09/17 04:28:22;;;;;;;0.10;0.10;;;;;;;;;;6291077;28;20023;-83
2023/09/17 04:31:22;;;;;;;0.10;0.10;;;;;;;;;;6281710;28;20025;-82
2023/09/17 04:34:24;;;;;;;0.10;0.10;;;;;;;;;;6291740;28;20705;-81
2023/09/17 04:37:24;;;;;;;0.10;0.10;;;;;;;;;;6268355;28;20028;-83
2023/09/17 04:40:28;;;;;;;0.10;0.10;;;;;;;;;;6250734;28;20136;-82
2023/09/17 04:43:28;;;;;;;0.10;0.10;;;;;;;;;;6276422;28;20045;-82
2023/09/17 04:46:28;;;;;;;0.10;0.10;;;;;;;;;;6303101;28;20024;-82
2023/09/17 04:49:31;;;;;;;0.10;0.10;;;;;;;;;;6285161;28;20020;-82
2023/09/17 04:52:31;;;;;;;0.10;0.10;;;;;;;;;;6296425;28;20022;-82
2023/09/17 04:55:33;;;;;;;0.10;0.10;;;;;;;;;;6281474;28;20033;-82
2023/09/17 04:58:33;;;;;;;0.10;0.10;;;;;;;;;;6292651;28;20035;-83
2023/09/17 05:01:33;;;;;;;0.10;0.10;;;;;;;;;;6285878;28;20033;-82
2023/09/17 05:04:34;;;;;;;0.10;0.10;;;;;;;;;;6294025;28;20029;-82
2023/09/17 05:07:35;;;;;;;0.10;0.10;;;;;;;;;;6293379;28;20131;-82
2023/09/17 05:10:35;;;;;;;0.10;0.10;;;;;;;;;;6273840;28;20363;-82
2023/09/17 05:13:35;;;;;;;0.10;0.10;;;;;;;;;;6297892;28;20028;-82
2023/09/17 05:16:37;;;;;;;0.10;0.10;;;;;;;;;;6273913;28;20044;-81
2023/09/17 05:19:38;;;;;;;0.10;0.10;;;;;;;;;;6275899;28;20095;-82
2023/09/17 05:22:38;;;;;;;0.10;0.10;;;;;;;;;;6290716;28;20025;-82
2023/09/17 05:25:38;;;;;;;0.10;0.10;;;;;;;;;;6301767;28;20494;-82
2023/09/17 05:28:38;;;;;;;0.10;0.10;;;;;;;;;;6276727;28;20017;-82
2023/09/17 05:31:39;;;;;;;0.10;0.10;;;;;;;;;;6276633;28;20017;-82
2023/09/17 05:34:39;;;;;;;0.10;0.10;;;;;;;;;;6258606;28;20422;-82
2023/09/17 05:37:39;;;;;;;0.10;0.10;;;;;;;;;;6276497;28;20427;-83
2023/09/17 05:40:39;;;;;;;0.10;0.10;;;;;;;;;;6276456;28;20391;-83
2023/09/17 05:43:40;;;;;;;0.10;0.10;;;;;;;;;;6257835;28;20048;-82
2023/09/17 05:46:40;;;;;;;0.10;0.10;;;;;;;;;;6276837;28;20104;-86
2023/09/17 05:49:40;;;;;;;0.10;0.10;;;;;;;;;;6276348;28;20417;-86
2023/09/17 05:52:41;;;;;;;0.10;0.10;;;;;;;;;;6276154;28;20466;-86
2023/09/17 05:55:41;;;;;;;0.10;0.10;;;;;;;;;;6276227;28;20444;-83
2023/09/17 05:58:41;;;;;;;0.00;0.00;;;;;;;;;;6257847;28;20032;-82
2023/09/17 06:01:41;;;;;;;0.10;0.10;;;;;;;;;;6276296;28;20025;-82
2023/09/17 06:04:43;;;;;;;0.00;0.00;;;;;;;;;;6275677;28;20082;-82
2023/09/17 06:07:43;;;;;;;0.00;0.00;;;;;;;;;;6258027;28;20094;-81
2023/09/17 06:10:44;;;;;;;0.00;0.00;;;;;;;;;;6257637;28;20017;-82
2023/09/17 06:13:45;;;;;;;0.00;0.00;;;;;;;;;;6275811;28;20048;-82
2023/09/17 06:16:45;;;;;;;0.00;0.00;;;;;;;;;;6277783;28;20471;-82
2023/09/17 06:19:45;;;;;;;0.00;0.00;;;;;;;;;;6294173;28;20529;-82
2023/09/17 06:22:48;;;;;;;0.00;0.00;;;;;;;;;;6297845;28;20020;-84
2023/09/17 06:25:49;;;;;;;0.00;0.00;;;;;;;;;;6293605;28;20039;-81
2023/09/17 06:28:49;;;;;;;0.00;0.00;;;;;;;;;;6299710;28;20024;-82
2023/09/17 06:31:50;;;;;;;0.00;0.00;;;;;;;;;;6268555;28;20099;-84
2023/09/17 06:34:50;;;;;;;0.00;0.00;;;;;;;;;;6291056;28;20021;-84
2023/09/17 06:37:51;;;;;;;0.00;0.00;;;;;;;;;;6293844;28;20029;-82
2023/09/17 06:40:51;;;;;;;0.00;0.00;;;;;;;;;;6300857;28;20035;-82
2023/09/17 06:43:51;;;;;;;0.00;0.00;;;;;;;;;;6305219;28;20075;-82
2023/09/17 06:46:54;;;;;;;0.00;0.00;;;;;;;;;;6291863;28;20034;-82
2023/09/17 06:49:54;;;;;;;0.00;0.00;;;;;;;;;;6276838;28;20016;-82
2023/09/17 06:52:55;;;;;;;0.00;0.00;;;;;;;;;;6273323;28;20047;-82
2023/09/17 06:55:56;;;;;;;0.00;0.00;;;;;;;;;;6295140;28;20032;-81
2023/09/17 06:58:57;;;;;;;0.00;0.00;;;;;;;;;;6297780;28;20509;-82
2023/09/17 07:01:57;;;;;;;0.00;0.00;;;;;;;;;;6280076;28;20099;-81
2023/09/17 07:05:00;;;;;;;0.00;0.00;;;;;;;;;;6291852;28;20056;-83
2023/09/17 07:08:01;;;;;;;0.00;0.00;;;;;;;;;;6296412;28;20121;-83
2023/09/17 07:11:01;;;;;;;0.00;0.00;;;;;;;;;;6263327;28;20016;-83
2023/09/17 07:14:08;;;;;;;0.00;0.00;;;;;;;;;;6286114;28;20114;-83
2023/09/17 07:17:09;;;;;;;0.00;0.00;;;;;;;;;;6285490;28;20028;-89
2023/09/17 07:20:13;;;;;;;0.00;0.00;;;;;;;;;;6293468;28;20441;-89
2023/09/17 07:23:13;;;;;;;0.00;0.00;;;;;;;;;;6284685;28;20056;-89
2023/09/17 07:26:15;;;;;;;0.00;0.00;;;;;;;;;;6272429;28;20036;-89
2023/09/17 07:29:16;;;;;;;0.00;0.00;;;;;;;;;;6283006;28;20035;-89
2023/09/17 07:32:16;;;;;;;0.00;0.00;;;;;;;;;;6281332;28;20395;-89
2023/09/17 07:35:17;;;;;;;0.00;0.00;;;;;;;;;;6266609;28;20486;-89
2023/09/17 07:38:17;;;;;;;0.00;0.00;;;;;;;;;;6279563;28;20096;-89
2023/09/17 07:41:17;;;;;;;0.00;0.00;;;;;;;;;;6279862;28;20024;-89
2023/09/17 07:44:17;;;;;;;0.00;0.00;;;;;;;;;;6295922;28;20036;-89
2023/09/17 07:47:18;;;;;;;0.00;0.00;;;;;;;;;;6269739;28;20037;-89
2023/09/17 07:50:18;;;;;;;0.00;0.00;;;;;;;;;;6268701;28;20029;-89
2023/09/17 07:53:18;;;;;;;0.00;0.00;;;;;;;;;;6270074;28;20016;-89
2023/09/17 07:56:19;;;;;;;0.00;0.00;;;;;;;;;;6300341;28;20450;-89
2023/09/17 07:59:20;;;;;;;0.00;0.00;;;;;;;;;;6281071;28;20021;-89
2023/09/17 08:02:20;;;;;;;0.10;0.10;;;;;;;;;;6295567;28;20383;-89
2023/09/17 08:05:25;;;;;;;0.00;0.00;;;;;;;;;;6290513;28;20025;-89
2023/09/17 08:08:26;;;;;;;0.00;0.00;;;;;;;;;;6293078;28;20191;-90
2023/09/17 08:11:29;;;;;;;0.00;0.00;;;;;;;;;;6294583;28;20162;-87
2023/09/17 08:14:29;;;;;;;0.00;0.00;;;;;;;;;;6287151;28;20021;-87
2023/09/17 08:17:29;;;;;;;0.00;0.00;;;;;;;;;;6292145;28;20671;-87
2023/09/17 08:20:29;;;;;;;0.00;0.00;;;;;;;;;;6261057;28;20052;-87
2023/09/17 08:23:30;;;;;;;0.00;0.00;;;;;;;;;;6272558;28;20143;-88
2023/09/17 08:26:31;;;;;;;0.00;0.00;;;;;;;;;;6264714;28;20080;-88
2023/09/17 08:29:31;;;;;;;0.00;0.00;;;;;;;;;;6266319;28;20052;-90
2023/09/17 08:32:31;;;;;;;0.00;0.00;;;;;;;;;;6285088;28;20028;-89
2023/09/17 08:35:32;;;;;;;0.00;0.00;;;;;;;;;;6276583;28;20467;-90
2023/09/17 08:38:32;;;;;;;0.00;0.00;;;;;;;;;;6286769;28;20297;-88
2023/09/17 08:41:35;;;;;;;0.00;0.00;;;;;;;;;;6291665;28;20024;-88
2023/09/17 08:44:35;;;;;;;0.00;0.00;;;;;;;;;;6284529;28;20277;-88
2023/09/17 08:47:37;;;;;;;0.00;0.00;;;;;;;;;;6296233;28;20669;-88
2023/09/17 08:50:38;;;;;;;0.00;0.00;;;;;;;;;;6293623;28;20024;-88
2023/09/17 08:53:50;;;;;;;0.00;0.00;;;;;;;;;;6271192;28;20375;-88
2023/09/17 08:56:51;;;;;;;0.00;0.00;;;;;;;;;;6277434;28;20082;-90
2023/09/17 09:00:05;;;;;;;0.00;0.00;;;;;;;;;;6298641;28;20020;-90
2023/09/17 09:03:08;;;;;;;0.00;0.00;;;;;;;;;;6296089;28;20020;-90
2023/09/17 09:06:09;;;;;;;0.00;0.00;;;;;;;;;;6277171;28;20015;-88
2023/09/17 09:09:09;;;;;;;0.00;0.00;;;;;;;;;;6290026;28;20032;-87
2023/09/17 09:12:10;;;;;;;0.00;0.00;;;;;;;;;;6296524;28;20028;-85
2023/09/17 09:15:10;;;;;;;0.00;0.00;;;;;;;;;;6273320;28;20059;-86
2023/09/17 09:18:10;;;;;;;0.00;0.00;;;;;;;;;;6308840;28;20046;-85
2023/09/17 09:21:13;;;;;;;0.00;0.00;;;;;;;;;;6277117;28;20394;-85
2023/09/17 09:24:13;;;;;;;0.00;0.00;;;;;;;;;;6279719;28;20023;-85
2023/09/17 09:27:14;;;;;;;0.00;0.00;;;;;;;;;;6287888;28;20037;-87
2023/09/17 09:30:15;;;;;;;0.00;0.00;;;;;;;;;;6295282;28;20434;-85
2023/09/17 09:33:20;;;;;;;0.00;0.00;;;;;;;;;;6294206;28;20251;-86
2023/09/17 09:36:21;;;;;;;0.00;0.00;;;;;;;;;;6298276;28;20013;-86
2023/09/17 09:39:21;;;;;;;0.00;0.00;;;;;;;;;;6297026;28;20028;-86
2023/09/17 09:42:25;;;;;;;0.00;0.00;;;;;;;;;;6291095;28;20028;-86
2023/09/17 09:45:27;;;;;;;0.00;0.00;;;;;;;;;;6298619;28;20429;-86
2023/09/17 09:48:28;;;;;;;0.00;0.00;;;;;;;;;;6274873;28;20020;-86
2023/09/17 09:51:31;;;;;;;0.00;0.00;;;;;;;;;;6271736;28;20035;-86
2023/09/17 09:54:32;;;;;;;0.00;0.00;;;;;;;;;;6295016;28;20096;-86
2023/09/17 09:57:32;;;;;;;;;;;;;;;;;;6309213;28;20022;-86
2023/09/17 10:00:33;;;;;;;0.00;0.00;;;;;;;;;;6280669;28;19909;-86
2023/09/17 10:03:34;;;;;;;0.00;0.00;;;;;;;;;;6293306;28;20023;-86
2023/09/17 10:06:34;;;;;;;;;;;;;;;;;;6301807;28;20525;-86
2023/09/17 10:09:34;;;;;;;0.00;0.00;;;;;;;;;;6276152;28;19991;-86
2023/09/17 10:12:34;;;;;;;;;;;;;;;;;;6269191;28;20031;-86
2023/09/17 10:15:36;;;;;;;0.00;0.00;;;;;;;;;;6288122;28;20488;-87
2023/09/17 10:18:38;;;;;;;0.00;0.00;;;;;;;;;;6268457;28;20033;-86
2023/09/17 10:21:39;;;;;;;0.00;0.00;;;;;;;;;;6274865;28;20359;-86
2023/09/17 10:24:42;;;;;;;0.00;0.00;;;;;;;;;;6291788;28;20033;-86
2023/09/17 10:27:43;;;;;;;0.00;0.00;;;;;;;;;;6301535;28;20032;-86
2023/09/17 10:30:51;;;;;;;0.00;0.00;;;;;;;;;;6304414;28;20135;-86
2023/09/17 10:33:52;;;;;;;0.00;0.00;;;;;;;;;;6289086;28;20009;-86
2023/09/17 10:36:53;;;;;;;0.00;0.00;;;;;;;;;;6288917;28;20021;-83
2023/09/17 10:39:56;;;;;;;0.00;0.00;;;;;;;;;;6267131;28;20103;-83
2023/09/17 10:43:01;;;;;;;0.00;0.00;;;;;;;;;;6270264;28;20028;-83
2023/09/17 10:46:03;;;;;;;0.00;0.00;;;;;;;;;;6286974;28;20124;-83
2023/09/17 10:49:04;;;;;;;0.00;0.00;;;;;;;;;;6292251;28;20028;-83
2023/09/17 10:52:05;;;;;;;0.00;0.00;;;;;;;;;;6277215;28;20371;-82
2023/09/17 10:55:08;;;;;;;0.00;0.00;;;;;;;;;;6276412;28;20020;-83
2023/09/17 10:58:20;;;;;;;0.00;0.00;;;;;;;;;;6294889;28;20034;-84
2023/09/17 11:01:23;;;;;;;0.00;0.00;;;;;;;;;;6294757;28;20082;-83
2023/09/17 11:04:25;;;;;;;0.00;0.00;;;;;;;;;;6297376;28;20528;-83
2023/09/17 11:07:26;;;;;;;0.00;0.00;;;;;;;;;;6305536;28;20315;-83
2023/09/17 11:10:26;;;;;;;0.00;0.00;;;;;;;;;;6282838;28;20079;-83
2023/09/17 11:13:27;;;;;;;;;;;;;;;;;;6281093;28;20048;-84
2023/09/17 11:16:28;;;;;;;0.00;0.00;;;;;;;;;;6297904;28;19909;-83
2023/09/17 11:19:29;;;;;;;0.00;0.00;;;;;;;;;;6277245;28;20497;-83
2023/09/17 11:22:35;;;;;;;0.00;0.00;;;;;;;;;;6289476;28;20036;-83
2023/09/17 11:25:37;;;;;;;0.00;0.00;;;;;;;;;;6282993;28;20481;-83
2023/09/17 11:28:38;;;;;;;0.00;0.00;;;;;;;;;;6276096;28;20486;-83
2023/09/17 11:31:38;;;;;;;;;;;;;;;;;;6275786;28;20016;-83
2023/09/17 11:34:41;;;;;;;0.00;0.00;;;;;;;;;;6278316;28;20577;-83
2023/09/17 11:37:41;;;;;;;0.00;0.00;;;;;;;;;;6287670;28;20053;-83
2023/09/17 11:40:42;;;;;;;0.00;0.00;;;;;;;;;;6270180;28;20033;-82
2023/09/17 11:43:43;;;;;;;0.00;0.00;;;;;;;;;;6283435;28;20104;-83
2023/09/17 11:46:44;;;;;;;0.00;0.00;;;;;;;;;;6277095;28;20077;-83
2023/09/17 11:49:44;;;;;;;0.00;0.00;;;;;;;;;;6299616;28;20032;-83
2023/09/17 11:52:59;;;;;;;0.00;0.00;;;;;;;;;;6287939;28;20099;-83
2023/09/17 11:56:02;;;;;;;0.00;0.00;;;;;;;;;;6266176;28;20592;-83
2023/09/17 11:59:15;;;;;;;0.00;0.00;;;;;;;;;;6277595;28;20054;-83
2023/09/17 12:02:17;;;;;;;0.00;0.00;;;;;;;;;;6276226;28;20394;-82
2023/09/17 12:05:21;;;;;;;0.00;0.00;;;;;;;;;;6290559;28;20524;-83
2023/09/17 12:08:22;;;;;;;0.00;0.00;;;;;;;;;;6289994;28;20043;-83
2023/09/17 12:11:23;;;;;;;0.00;0.00;;;;;;;;;;6293619;28;20693;-83
2023/09/17 12:14:23;;;;;;;0.00;0.00;;;;;;;;;;6275200;28;20540;-83
2023/09/17 12:17:23;;;;;;;0.00;0.00;;;;;;;;;;6269526;28;20267;-83
2023/09/17 12:30:08;;;;;;;0.00;0.00;;;;;;;;;;6286913;28;20032;-83
2023/09/17 12:33:09;;;;;;;0.00;0.00;;;;;;;;;;6281356;28;20017;-84
2023/09/17 12:36:10;;;;;;;0.00;0.00;;;;;;;;;;6289635;28;20472;-83
2023/09/17 12:39:11;;;;;;;;;;;;;;;;;;6272415;28;20024;-83
2023/09/17 12:42:11;;;;;;;0.00;0.00;;;;;;;;;;6262223;28;19978;-83
2023/09/17 12:45:11;;;;;;;;;;;;;;;;;;6275548;28;20123;-83
2023/09/17 12:48:11;;;;;;;0.00;0.00;;;;;;;;;;6266573;28;19916;-83
2023/09/17 12:51:11;;;;;;;;;;;;;;;;;;6278988;28;20190;-84
2023/09/17 12:54:12;;;;;;;0.00;0.00;;;;;;;;;;6264920;28;19994;-83
2023/09/17 12:57:12;;;;;;;0.00;0.00;;;;;;;;;;6297381;28;20020;-84
2023/09/17 13:00:13;;;;;;;0.00;0.00;;;;;;;;;;6265318;28;20111;-84
2023/09/17 13:03:14;;;;;;;;;;;;;;;;;;6292739;28;20032;-83
2023/09/17 13:06:17;;;;;;;0.00;0.00;;;;;;;;;;6276321;28;19928;-83
2023/09/17 13:09:17;;;;;;;0.00;0.00;;;;;;;;;;6267494;28;20032;-83
2023/09/17 13:12:20;;;;;;;0.00;0.00;;;;;;;;;;6270021;28;20043;-83
2023/09/17 13:15:21;;;;;;;0.00;0.00;;;;;;;;;;6274978;28;20760;-84
2023/09/17 13:18:21;;;;;;;0.00;0.00;;;;;;;;;;6280176;28;20078;-83
2023/09/17 13:21:21;;;;;;;0.00;0.00;;;;;;;;;;6267366;28;20020;-83
2023/09/17 13:24:21;;;;;;;0.00;0.00;;;;;;;;;;6287157;28;20114;-83
2023/09/17 13:27:22;;;;;;;0.00;0.00;;;;;;;;;;6266501;28;20274;-83
2023/09/17 13:30:22;;;;;;;0.00;0.00;;;;;;;;;;6264417;28;20070;-83
2023/09/17 13:33:22;;;;;;;0.00;0.00;;;;;;;;;;6282197;28;20664;-83
2023/09/17 13:36:23;;;;;;;0.00;0.00;;;;;;;;;;6277417;28;20027;-83
2023/09/17 13:39:24;;;;;;;0.00;0.00;;;;;;;;;;6293053;28;20506;-83
2023/09/17 13:42:24;;;;;;;0.00;0.00;;;;;;;;;;6287812;28;20399;-83
2023/09/17 13:45:24;;;;;;;0.00;0.00;;;;;;;;;;6295498;28;20025;-83
2023/09/17 13:48:24;;;;;;;;;;;;;;;;;;6282547;28;20040;-83
2023/09/17 13:51:24;;;;;;;0.00;0.00;;;;;;;;;;6285939;28;19993;-83
2023/09/17 13:54:25;;;;;;;0.00;0.00;;;;;;;;;;6270914;28;20170;-83
2023/09/17 13:57:25;;;;;;;;;;;;;;;;;;6274177;28;20029;-83
2023/09/17 14:00:25;;;;;;;0.00;0.00;;;;;;;;;;6277752;28;19966;-83
2023/09/17 14:03:25;;;;;;;0.00;0.00;;;;;;;;;;6291526;28;20040;-84
2023/09/17 14:06:25;;;;;;;0.00;0.00;;;;;;;;;;6280274;28;20049;-88
2023/09/17 14:09:26;;;;;;;0.00;0.00;;;;;;;;;;6270579;28;20033;-87
2023/09/17 14:12:26;;;;;;;0.00;0.00;;;;;;;;;;6291432;28;20075;-87
2023/09/17 14:15:27;;;;;;;0.00;0.00;;;;;;;;;;6290166;28;20021;-84
2023/09/17 14:18:27;;;;;;;0.00;0.00;;;;;;;;;;6294718;28;20031;-83
2023/09/17 14:21:27;;;;;;;0.00;0.00;;;;;;;;;;6277033;28;20024;-83
2023/09/17 14:24:28;;;;;;;0.00;0.00;;;;;;;;;;6295061;28;20028;-83
2023/09/17 14:27:28;;;;;;;0.00;0.00;;;;;;;;;;6300097;28;20107;-83
2023/09/17 14:30:30;;;;;;;0.00;0.00;;;;;;;;;;6302655;28;20059;-84
2023/09/17 14:33:31;;;;;;;0.00;0.00;;;;;;;;;;6268003;28;20033;-83
2023/09/17 14:36:32;;;;;;;0.00;0.00;;;;;;;;;;6292546;28;20032;-83
2023/09/17 14:39:32;;;;;;;0.00;0.00;;;;;;;;;;6273253;28;20052;-83
2023/09/17 14:42:34;;;;;;;0.00;0.00;;;;;;;;;;6306064;28;20038;-83
2023/09/17 14:45:36;;;;;;;0.00;0.00;;;;;;;;;;6293341;28;20030;-83
2023/09/17 14:48:36;;;;;;;0.00;0.00;;;;;;;;;;6291610;28;20039;-83
2023/09/17 14:51:36;;;;;;;;;;;;;;;;;;6289384;28;20017;-83
2023/09/17 14:54:37;;;;;;;0.00;0.00;;;;;;;;;;6290579;28;20319;-83
2023/09/17 14:57:40;;;;;;;;;;;;;;;;;;6289630;28;20032;-83
2023/09/17 15:00:40;;;;;;;0.00;0.00;;;;;;;;;;6306838;28;19908;-83
2023/09/17 15:03:40;;;;;;;0.00;0.00;;;;;;;;;;6279520;28;20020;-84
2023/09/17 15:06:40;;;;;;;0.00;0.00;;;;;;;;;;6271868;28;20725;-83
2023/09/17 15:09:41;;;;;;;0.00;0.00;;;;;;;;;;6291652;28;20478;-83
2023/09/17 15:12:41;;;;;;;0.00;0.00;;;;;;;;;;6280944;28;20075;-83
2023/09/17 15:15:41;;;;;;;0.00;0.00;;;;;;;;;;6272335;28;20036;-84
2023/09/17 15:18:41;;;;;;;0.00;0.00;;;;;;;;;;6298024;28;20024;-84
2023/09/17 15:21:41;;;;;;;0.00;0.00;;;;;;;;;;6296674;28;20816;-83
2023/09/17 15:24:42;;;;;;;0.00;0.00;;;;;;;;;;6297507;28;20029;-84
2023/09/17 15:27:43;;;;;;;0.00;0.00;;;;;;;;;;6288793;28;20029;-87
2023/09/17 15:30:44;;;;;;;0.00;0.00;;;;;;;;;;6292984;28;20028;-87
2023/09/17 15:33:44;;;;;;;0.00;0.00;;;;;;;;;;6289054;28;20112;-87
2023/09/17 15:36:45;;;;;;;0.00;0.00;;;;;;;;;;6269886;28;20032;-87
2023/09/17 15:39:45;;;;;;;0.00;0.00;;;;;;;;;;6269789;28;20058;-87
2023/09/17 15:42:45;;;;;;;0.00;0.00;;;;;;;;;;6284125;28;20621;-87
2023/09/17 15:45:47;;;;;;;0.00;0.00;;;;;;;;;;6273567;28;20036;-87
2023/09/17 15:48:47;;;;;;;0.00;0.00;;;;;;;;;;6269830;28;20147;-87
2023/09/17 15:51:48;;;;;;;0.00;0.00;;;;;;;;;;6270028;28;20514;-87
2023/09/17 15:54:48;;;;;;;0.00;0.00;;;;;;;;;;6270186;28;20020;-87
2023/09/17 15:57:49;;;;;;;0.00;0.00;;;;;;;;;;6299306;28;20039;-87
2023/09/17 16:00:49;;;;;;;;;;;;;;;;;;6280940;28;20249;-87
2023/09/17 16:03:49;;;;;;;0.00;0.00;;;;;;;;;;6274783;28;19915;-86
2023/09/17 16:06:49;;;;;;;;;;;;;;;;;;6270274;28;20045;-88
2023/09/17 16:09:51;;;;;;;0.00;0.00;;;;;;;;;;6286712;28;19920;-87
2023/09/17 16:12:51;;;;;;;0.00;0.00;;;;;;;;;;6278605;28;20019;-87
2023/09/17 16:15:51;;;;;;;;;;;;;;;;;;6290284;28;20012;-87
2023/09/17 16:18:51;;;;;;;0.00;0.00;;;;;;;;;;6292993;28;19904;-87
2023/09/17 16:21:51;;;;;;;;;;;;;;;;;;6283795;28;20059;-87
2023/09/17 16:24:53;;;;;;;0.00;0.00;;;;;;;;;;6279475;28;19944;-87
2023/09/17 16:27:53;;;;;;;0.00;0.00;;;;;;;;;;6296749;28;20015;-83
2023/09/17 16:30:53;;;;;;;;;;;;;;;;;;6274498;28;20024;-83
2023/09/17 16:33:53;;;;;;;0.00;0.00;;;;;;;;;;6270151;28;20337;-82
2023/09/17 16:36:54;;;;;;;0.00;0.00;;;;;;;;;;6269782;28;20021;-82
2023/09/17 16:39:54;;;;;;;0.00;0.00;;;;;;;;;;6297720;28;20114;-83
2023/09/17 16:42:54;;;;;;;0.00;0.00;;;;;;;;;;6266653;28;20023;-83
2023/09/17 16:45:55;;;;;;;0.00;0.00;;;;;;;;;;6266646;28;20089;-83
2023/09/17 16:48:55;;;;;;;0.00;0.00;;;;;;;;;;6290420;28;20487;-83
2023/09/17 16:51:55;;;;;;;0.00;0.00;;;;;;;;;;6285336;28;20021;-83
2023/09/17 16:54:55;;;;;;;0.00;0.00;;;;;;;;;;6293661;28;20027;-82
2023/09/17 16:57:55;;;;;;;0.00;0.00;;;;;;;;;;6274488;28;20025;-83
2023/09/17 17:00:56;;;;;;;0.00;0.00;;;;;;;;;;6287973;28;20032;-83
2023/09/17 17:03:56;;;;;;;0.00;0.00;;;;;;;;;;6281998;28;20035;-83
2023/09/17 17:06:56;;;;;;;0.00;0.00;;;;;;;;;;6289340;28;20057;-83
2023/09/17 17:09:56;;;;;;;0.00;0.00;;;;;;;;;;6263153;28;20497;-83
2023/09/17 17:12:57;;;;;;;0.00;0.00;;;;;;;;;;6289484;28;20501;-83
2023/09/17 17:15:57;;;;;;;0.00;0.00;;;;;;;;;;6266472;28;20442;-83
2023/09/17 17:18:57;;;;;;;0.00;0.00;;;;;;;;;;6295596;28;20020;-83
2023/09/17 17:21:57;;;;;;;0.00;0.00;;;;;;;;;;6285864;28;20122;-83
2023/09/17 17:24:58;;;;;;;0.00;0.00;;;;;;;;;;6294503;28;20280;-83
2023/09/17 17:27:58;;;;;;;0.00;0.00;;;;;;;;;;6283361;28;20021;-83
2023/09/17 17:30:59;;;;;;;0.00;0.00;;;;;;;;;;6271025;28;20032;-83
2023/09/17 17:33:59;;;;;;;0.00;0.00;;;;;;;;;;6275876;28;20394;-82
2023/09/17 17:37:03;;;;;;;0.00;0.00;;;;;;;;;;6286303;28;20048;-83
2023/09/17 17:40:03;;;;;;;0.00;0.00;;;;;;;;;;6289195;28;20031;-82
2023/09/17 17:43:03;;;;;;;0.10;0.10;;;;;;;;;;6270093;28;20021;-82
2023/09/17 17:46:04;;;;;;;0.00;0.00;;;;;;;;;;6274517;28;20082;-83
2023/09/17 17:49:04;;;;;;;0.00;0.00;;;;;;;;;;6284146;28;20028;-83
2023/09/17 17:52:04;;;;;;;0.00;0.00;;;;;;;;;;6266479;28;20156;-83
2023/09/17 17:55:05;;;;;;;0.00;0.00;;;;;;;;;;6273477;28;20538;-83
2023/09/17 17:58:05;;;;;;;0.00;0.00;;;;;;;;;;6290831;28;20028;-83
2023/09/17 18:01:06;;;;;;;0.00;0.00;;;;;;;;;;6290201;28;20032;-83
2023/09/17 18:04:06;;;;;;;0.00;0.00;;;;;;;;;;6272368;28;20028;-82
2023/09/17 18:07:06;;;;;;;0.00;0.00;;;;;;;;;;6273418;28;20169;-83
2023/09/17 18:10:07;;;;;;;0.10;0.10;;;;;;;;;;6275015;28;20024;-82
2023/09/17 18:13:08;;;;;;;0.00;0.00;;;;;;;;;;6286459;28;20025;-83
2023/09/17 18:16:08;;;;;;;0.07;0.07;;;;;;;;;;6291727;28;20108;-82
2023/09/17 18:19:08;;;;;;;0.00;0.00;;;;;;;;;;6291712;28;20505;-82
2023/09/17 18:22:08;;;;;;;0.00;0.00;;;;;;;;;;6295452;28;20356;-83